createdAt,value
2024-03-26T00:01:08.100Z,5.93
2024-03-26T00:03:36.187Z,5.89
2024-03-26T00:06:15.453Z,5.81
2024-03-26T00:08:42.922Z,5.91
2024-03-26T00:11:13.142Z,5.85
2024-03-26T00:13:40.597Z,5.77
2024-03-26T00:16:08.738Z,5.84
2024-03-26T00:18:36.188Z,5.79
2024-03-26T00:21:03.912Z,5.86
2024-03-26T00:23:31.814Z,5.82
2024-03-26T00:25:59.183Z,5.82
2024-03-26T00:28:29.050Z,5.76
2024-03-26T00:30:56.765Z,5.79
2024-03-26T00:33:24.101Z,5.72
2024-03-26T00:35:51.685Z,5.75
2024-03-26T00:38:19.059Z,5.80
2024-03-26T00:40:47.122Z,5.76
2024-03-26T00:43:14.456Z,5.79
2024-03-26T00:45:45.803Z,5.76
2024-03-26T00:48:21.599Z,5.81
2024-03-26T00:50:49.410Z,5.79
2024-03-26T00:53:16.812Z,5.82
2024-03-26T00:55:44.273Z,5.83
2024-03-26T00:58:12.104Z,5.81
2024-03-26T01:00:39.754Z,5.81
2024-03-26T01:03:10.934Z,5.78
2024-03-26T01:05:38.629Z,5.79
2024-03-26T01:08:08.002Z,5.83
2024-03-26T01:10:35.477Z,5.79
2024-03-26T01:13:03.001Z,5.76
2024-03-26T01:15:31.385Z,5.82
2024-03-26T01:18:01.138Z,5.81
2024-03-26T01:20:31.307Z,5.80
2024-03-26T01:22:59.040Z,5.83
2024-03-26T01:25:26.415Z,5.81
2024-03-26T01:27:54.399Z,5.81
2024-03-26T01:30:22.639Z,5.79
2024-03-26T01:32:50.106Z,5.79
2024-03-26T01:35:17.838Z,5.70
2024-03-26T01:37:48.572Z,5.72
2024-03-26T01:40:16.190Z,5.69
2024-03-26T01:42:43.764Z,5.63
2024-03-26T01:45:11.402Z,5.57
2024-03-26T01:47:39.769Z,5.57
2024-03-26T01:50:16.166Z,5.53
2024-03-26T01:52:48.752Z,5.42
2024-03-26T01:55:19.454Z,5.46
2024-03-26T01:57:49.682Z,5.49
2024-03-26T02:00:21.627Z,5.48
2024-03-26T02:02:54.067Z,5.51
2024-03-26T02:05:21.506Z,5.51
2024-03-26T02:07:52.316Z,5.50
2024-03-26T02:10:20.991Z,5.49
2024-03-26T02:12:49.864Z,5.51
2024-03-26T02:15:17.287Z,5.49
2024-03-26T02:17:44.675Z,5.46
2024-03-26T02:20:13.664Z,5.41
2024-03-26T02:22:41.315Z,5.40
2024-03-26T02:25:12.029Z,5.36
2024-03-26T02:27:41.885Z,5.32
2024-03-26T02:30:12.475Z,5.30
2024-03-26T02:32:39.895Z,5.31
2024-03-26T02:35:08.469Z,5.33
2024-03-26T02:37:35.892Z,5.34
2024-03-26T02:40:04.865Z,5.31
2024-03-26T02:42:33.810Z,5.30
2024-03-26T02:45:04.391Z,5.28
2024-03-26T02:47:32.369Z,5.25
2024-03-26T02:49:59.730Z,5.18
2024-03-26T02:52:27.128Z,5.17
2024-03-26T02:55:02.595Z,5.17
2024-03-26T02:57:29.948Z,5.11
2024-03-26T02:59:57.430Z,5.13
2024-03-26T03:02:27.316Z,5.06
2024-03-26T03:04:54.812Z,5.08
2024-03-26T03:07:24.100Z,5.02
2024-03-26T03:09:51.435Z,5.02
2024-03-26T03:12:18.783Z,5.02
2024-03-26T03:14:46.574Z,5.03
2024-03-26T03:17:13.940Z,5.01
2024-03-26T03:19:44.124Z,5.04
2024-03-26T03:22:12.607Z,4.97
2024-03-26T03:24:40.951Z,5.05
2024-03-26T03:27:08.312Z,5.07
2024-03-26T03:29:35.747Z,5.04
2024-03-26T03:32:04.468Z,5.05
2024-03-26T03:34:32.518Z,5.08
2024-03-26T03:37:14.842Z,5.04
2024-03-26T03:39:42.265Z,5.02
2024-03-26T03:42:10.204Z,5.01
2024-03-26T03:44:38.698Z,4.90
2024-03-26T03:47:06.818Z,4.97
2024-03-26T03:49:34.599Z,4.97
2024-03-26T03:52:05.438Z,4.93
2024-03-26T03:54:33.236Z,4.94
2024-03-26T03:57:00.622Z,4.95
2024-03-26T03:59:28.035Z,4.90
2024-03-26T04:01:55.841Z,4.92
2024-03-26T04:04:24.166Z,4.90
2024-03-26T04:06:51.539Z,4.88
2024-03-26T04:09:21.369Z,4.92
2024-03-26T04:11:52.230Z,4.91
2024-03-26T04:14:21.362Z,4.87
2024-03-26T04:16:49.054Z,4.89
2024-03-26T04:19:28.323Z,4.92
2024-03-26T04:21:55.700Z,4.88
2024-03-26T04:24:25.569Z,4.86
2024-03-26T04:26:52.924Z,4.84
2024-03-26T04:29:20.623Z,4.88
2024-03-26T04:31:53.539Z,4.81
2024-03-26T04:34:21.008Z,4.84
2024-03-26T04:36:52.624Z,4.81
2024-03-26T04:39:20.994Z,4.80
2024-03-26T04:41:50.768Z,4.76
2024-03-26T04:44:19.211Z,4.77
2024-03-26T04:46:46.998Z,4.74
2024-03-26T04:49:15.298Z,4.69
2024-03-26T04:51:43.258Z,4.68
2024-03-26T04:54:13.207Z,4.63
2024-03-26T04:56:40.644Z,4.57
2024-03-26T04:59:14.201Z,4.55
2024-03-26T05:01:42.169Z,4.48
2024-03-26T05:04:11.601Z,4.38
2024-03-26T05:06:39.066Z,4.37
2024-03-26T05:09:06.461Z,4.35
2024-03-26T05:11:35.785Z,4.29
2024-03-26T05:14:03.444Z,4.21
2024-03-26T05:16:33.879Z,4.21
2024-03-26T05:19:01.222Z,4.20
2024-03-26T05:21:28.587Z,4.22
2024-03-26T05:23:56.014Z,4.21
2024-03-26T05:26:23.477Z,4.10
2024-03-26T05:28:51.855Z,4.10
2024-03-26T05:31:21.807Z,4.08
2024-03-26T05:33:51.738Z,4.07
2024-03-26T05:36:19.181Z,4.03
2024-03-26T05:38:46.582Z,4.07
2024-03-26T05:41:13.956Z,4.00
2024-03-26T05:43:54.819Z,4.00
2024-03-26T05:46:22.220Z,3.96
2024-03-26T05:48:52.430Z,3.98
2024-03-26T05:51:21.152Z,3.96
2024-03-26T05:53:48.600Z,3.99
2024-03-26T05:56:16.286Z,3.98
2024-03-26T05:58:43.615Z,3.99
2024-03-26T06:01:13.147Z,3.98
2024-03-26T06:03:41.666Z,4.01
2024-03-26T06:06:12.705Z,4.02
2024-03-26T06:08:40.161Z,4.07
2024-03-26T06:11:07.693Z,4.08
2024-03-26T06:13:35.877Z,4.06
2024-03-26T06:16:06.352Z,4.15
2024-03-26T06:18:33.922Z,4.19
2024-03-26T06:21:01.346Z,4.24
2024-03-26T06:23:31.409Z,4.29
2024-03-26T06:26:05.947Z,4.30
2024-03-26T06:28:34.599Z,4.36
2024-03-26T06:31:01.970Z,4.44
2024-03-26T06:33:29.602Z,4.51
2024-03-26T06:35:56.975Z,4.57
2024-03-26T06:38:24.391Z,4.68
2024-03-26T06:40:56.946Z,4.73
2024-03-26T06:43:25.563Z,4.74
2024-03-26T06:45:54.066Z,4.81
2024-03-26T06:48:21.468Z,4.85
2024-03-26T06:50:49.911Z,4.95
2024-03-26T06:53:17.405Z,5.06
2024-03-26T06:55:45.147Z,5.18
2024-03-26T06:58:15.309Z,5.29
2024-03-26T07:00:42.638Z,5.46
2024-03-26T07:03:12.933Z,5.57
2024-03-26T07:05:40.279Z,5.72
2024-03-26T07:08:20.236Z,5.84
2024-03-26T07:10:50.448Z,5.98
2024-03-26T07:13:21.125Z,6.14
2024-03-26T07:15:48.529Z,6.32
2024-03-26T07:18:15.924Z,6.58
2024-03-26T07:20:43.622Z,6.81
2024-03-26T07:23:11.602Z,7.17
2024-03-26T07:25:38.970Z,7.45
2024-03-26T07:28:07.305Z,7.70
2024-03-26T07:30:37.312Z,7.98
2024-03-26T07:33:05.667Z,8.28
2024-03-26T07:35:33.699Z,8.58
2024-03-26T07:38:01.697Z,8.83
2024-03-26T07:40:29.641Z,9.07
2024-03-26T07:42:59.732Z,9.27
2024-03-26T07:45:29.411Z,9.41
2024-03-26T07:48:00.496Z,9.59
2024-03-26T07:50:30.805Z,9.84
2024-03-26T07:52:58.258Z,10.12
2024-03-26T07:55:25.714Z,10.35
2024-03-26T07:58:03.966Z,10.60
2024-03-26T08:00:31.478Z,10.76
2024-03-26T08:03:02.398Z,10.91
2024-03-26T08:05:30.021Z,11.13
2024-03-26T08:07:57.440Z,11.32
2024-03-26T08:10:24.917Z,11.49
2024-03-26T08:12:53.977Z,11.64
2024-03-26T08:15:21.675Z,11.77
2024-03-26T08:17:49.414Z,11.81
2024-03-26T08:20:19.293Z,12.11
2024-03-26T08:22:46.804Z,12.32
2024-03-26T08:25:14.572Z,12.35
2024-03-26T08:27:41.932Z,12.29
2024-03-26T08:30:14.631Z,12.36
2024-03-26T08:32:42.086Z,12.33
2024-03-26T08:35:11.590Z,12.41
2024-03-26T08:37:41.515Z,12.45
2024-03-26T08:40:11.309Z,12.55
2024-03-26T08:42:39.086Z,12.56
2024-03-26T08:45:09.761Z,12.53
2024-03-26T08:47:39.032Z,12.42
2024-03-26T08:50:10.442Z,12.44
2024-03-26T08:52:37.848Z,12.40
2024-03-26T08:55:09.877Z,12.34
2024-03-26T08:57:37.290Z,12.40
2024-03-26T09:00:11.838Z,12.39
2024-03-26T09:02:39.295Z,12.32
2024-03-26T09:05:07.338Z,12.26
2024-03-26T09:07:42.172Z,12.16
2024-03-26T09:10:27.101Z,12.12
2024-03-26T09:12:54.444Z,12.14
2024-03-26T09:15:22.462Z,12.12
2024-03-26T09:17:53.164Z,12.15
2024-03-26T09:20:20.911Z,12.10
2024-03-26T09:22:48.615Z,12.10
2024-03-26T09:25:15.950Z,12.05
2024-03-26T09:27:46.146Z,12.11
2024-03-26T09:30:14.817Z,12.11
2024-03-26T09:32:44.162Z,12.25
2024-03-26T09:35:12.380Z,12.23
2024-03-26T09:37:43.884Z,12.24
2024-03-26T09:40:14.568Z,12.25
2024-03-26T09:42:59.022Z,12.20
2024-03-26T09:45:34.097Z,12.04
2024-03-26T09:48:03.126Z,11.93
2024-03-26T09:50:32.800Z,11.91
2024-03-26T09:53:01.114Z,11.81
2024-03-26T09:55:29.516Z,11.72
2024-03-26T09:57:59.369Z,11.67
2024-03-26T10:00:32.432Z,11.72
2024-03-26T10:03:04.948Z,11.72
2024-03-26T10:05:32.328Z,11.72
2024-03-26T10:07:59.828Z,11.73
2024-03-26T10:10:29.845Z,11.67
2024-03-26T10:13:52.814Z,11.72
2024-03-26T10:16:20.495Z,11.65
2024-03-26T10:18:50.956Z,11.71
2024-03-26T10:21:18.441Z,11.74
2024-03-26T10:23:45.755Z,11.71
2024-03-26T10:26:13.508Z,11.72
2024-03-26T10:28:45.102Z,11.74
2024-03-26T10:31:13.362Z,11.73
2024-03-26T10:33:41.770Z,11.70
2024-03-26T10:36:13.086Z,11.74
2024-03-26T10:38:47.911Z,11.75
2024-03-26T10:41:25.411Z,11.76
2024-03-26T10:43:57.874Z,11.73
2024-03-26T10:46:25.589Z,11.72
2024-03-26T10:49:00.476Z,11.73
2024-03-26T10:51:30.633Z,11.70
2024-03-26T10:54:01.260Z,11.76
2024-03-26T10:56:30.854Z,11.77
2024-03-26T10:59:03.019Z,11.79
2024-03-26T11:01:32.894Z,11.75
2024-03-26T11:04:01.668Z,11.80
2024-03-26T11:06:30.451Z,11.77
2024-03-26T11:08:58.874Z,11.81
2024-03-26T11:11:26.246Z,11.85
2024-03-26T11:13:57.897Z,11.89
2024-03-26T11:16:40.186Z,11.96
2024-03-26T11:19:18.982Z,12.08
2024-03-26T11:21:51.605Z,12.22
2024-03-26T11:24:26.168Z,12.33
2024-03-26T11:26:53.590Z,12.50
2024-03-26T11:29:20.935Z,12.52
2024-03-26T11:31:51.652Z,12.57
2024-03-26T11:34:22.270Z,12.67
2024-03-26T11:36:53.386Z,12.57
2024-03-26T11:39:23.736Z,12.59
2024-03-26T11:41:52.035Z,12.64
2024-03-26T11:44:19.977Z,12.64
2024-03-26T11:46:50.202Z,12.75
2024-03-26T11:49:17.598Z,12.82
2024-03-26T11:51:45.992Z,12.92
2024-03-26T11:54:17.557Z,12.98
2024-03-26T11:56:45.178Z,13.08
2024-03-26T11:59:12.579Z,13.15
2024-03-26T12:01:40.328Z,13.21
2024-03-26T12:04:11.171Z,13.22
2024-03-26T12:06:38.592Z,13.21
2024-03-26T12:09:07.505Z,13.25
2024-03-26T12:11:35.118Z,13.27
2024-03-26T12:14:03.559Z,13.22
2024-03-26T12:16:31.559Z,13.19
2024-03-26T12:18:59.147Z,13.21
2024-03-26T12:21:29.006Z,13.24
2024-03-26T12:23:58.212Z,13.24
2024-03-26T12:26:25.610Z,13.17
2024-03-26T12:28:52.961Z,13.18
2024-03-26T12:31:22.533Z,13.14
2024-03-26T12:33:49.965Z,13.11
2024-03-26T12:36:17.365Z,13.13
2024-03-26T12:38:47.844Z,13.12
2024-03-26T12:41:15.290Z,13.06
2024-03-26T12:43:42.655Z,13.08
2024-03-26T12:46:09.984Z,13.05
2024-03-26T12:48:37.383Z,13.12
2024-03-26T12:51:05.178Z,13.07
2024-03-26T12:53:32.569Z,13.09
2024-03-26T12:56:02.403Z,13.10
2024-03-26T12:58:29.833Z,13.12
2024-03-26T13:00:57.317Z,13.14
2024-03-26T13:03:24.708Z,13.09
2024-03-26T13:05:52.086Z,13.08
2024-03-26T13:08:19.471Z,13.09
2024-03-26T13:10:49.963Z,13.07
2024-03-26T13:13:20.218Z,13.07
2024-03-26T13:15:48.765Z,13.10
2024-03-26T13:18:16.090Z,13.07
2024-03-26T13:20:43.491Z,13.12
2024-03-26T13:23:10.934Z,13.17
2024-03-26T13:25:38.311Z,13.12
2024-03-26T13:28:06.084Z,13.17
2024-03-26T13:30:41.263Z,13.23
2024-03-26T13:33:12.914Z,13.31
2024-03-26T13:35:40.348Z,13.23
2024-03-26T13:38:10.344Z,13.29
2024-03-26T13:40:50.101Z,13.38
2024-03-26T13:43:20.822Z,13.47
2024-03-26T13:45:51.567Z,13.49
2024-03-26T13:48:19.922Z,13.53
2024-03-26T13:50:48.120Z,13.54
2024-03-26T13:53:16.063Z,13.61
2024-03-26T13:55:44.052Z,13.69
2024-03-26T13:58:11.602Z,13.68
2024-03-26T14:00:39.686Z,13.66
2024-03-26T14:03:09.687Z,13.65
2024-03-26T14:05:37.205Z,13.69
2024-03-26T14:08:05.092Z,13.68
2024-03-26T14:10:32.333Z,13.71
2024-03-26T14:12:59.632Z,13.72
2024-03-26T14:15:27.734Z,13.71
2024-03-26T14:17:55.056Z,13.64
2024-03-26T14:20:24.938Z,13.62
2024-03-26T14:22:52.249Z,13.55
2024-03-26T14:25:19.589Z,13.61
2024-03-26T14:27:47.430Z,13.64
2024-03-26T14:30:15.851Z,13.58
2024-03-26T14:32:43.698Z,13.58
2024-03-26T14:35:12.984Z,13.52
2024-03-26T14:37:49.241Z,13.56
2024-03-26T14:40:17.035Z,13.52
2024-03-26T14:42:44.417Z,13.48
2024-03-26T14:45:13.464Z,13.46
2024-03-26T14:47:41.684Z,13.45
2024-03-26T14:50:11.631Z,13.42
2024-03-26T14:52:38.991Z,13.37
2024-03-26T14:55:09.544Z,13.38
2024-03-26T14:57:36.971Z,13.36
2024-03-26T15:00:12.151Z,13.29
2024-03-26T15:02:39.576Z,13.26
2024-03-26T15:05:09.360Z,13.21
2024-03-26T15:07:37.323Z,13.24
2024-03-26T15:10:05.961Z,13.18
2024-03-26T15:12:36.066Z,13.08
2024-03-26T15:15:04.909Z,13.11
2024-03-26T15:17:32.681Z,13.10
2024-03-26T15:20:02.709Z,13.10
2024-03-26T15:22:30.508Z,13.05
2024-03-26T15:24:59.300Z,12.99
2024-03-26T15:27:26.680Z,12.92
2024-03-26T15:30:14.960Z,12.85
2024-03-26T15:32:42.486Z,12.81
2024-03-26T15:35:09.930Z,12.79
2024-03-26T15:37:38.717Z,12.78
2024-03-26T15:40:09.149Z,12.72
2024-03-26T15:42:37.717Z,12.77
2024-03-26T15:45:09.501Z,12.76
2024-03-26T15:47:36.891Z,12.77
2024-03-26T15:50:06.809Z,12.74
2024-03-26T15:52:34.494Z,12.78
2024-03-26T15:55:01.945Z,12.77
2024-03-26T15:57:29.397Z,12.83
2024-03-26T15:59:56.769Z,12.81
2024-03-26T16:02:26.919Z,12.82
2024-03-26T16:04:54.353Z,12.83
2024-03-26T16:07:22.191Z,12.85
2024-03-26T16:10:04.234Z,12.76
2024-03-26T16:12:36.990Z,12.80
2024-03-26T16:15:05.449Z,12.80
2024-03-26T16:17:35.323Z,12.83
2024-03-26T16:20:03.796Z,12.81
2024-03-26T16:22:31.307Z,12.77
2024-03-26T16:24:58.743Z,12.79
2024-03-26T16:27:26.543Z,12.80
2024-03-26T16:29:55.046Z,12.72
2024-03-26T16:32:23.110Z,12.69
2024-03-26T16:34:53.065Z,12.75
2024-03-26T16:37:20.467Z,12.78
2024-03-26T16:39:47.719Z,12.65
2024-03-26T16:42:14.985Z,12.69
2024-03-26T16:44:42.376Z,12.69
2024-03-26T16:47:10.073Z,12.66
2024-03-26T16:49:37.388Z,12.69
2024-03-26T16:52:08.336Z,12.66
2024-03-26T16:54:35.804Z,12.60
2024-03-26T16:57:04.957Z,12.52
2024-03-26T16:59:32.313Z,12.55
2024-03-26T17:01:59.738Z,12.55
2024-03-26T17:04:27.074Z,12.49
2024-03-26T17:06:54.421Z,12.48
2024-03-26T17:09:24.893Z,12.46
2024-03-26T17:11:52.247Z,12.37
2024-03-26T17:14:19.601Z,12.36
2024-03-26T17:17:05.120Z,12.30
2024-03-26T17:19:37.588Z,12.27
2024-03-26T17:22:06.514Z,12.15
2024-03-26T17:24:36.370Z,12.08
2024-03-26T17:27:04.609Z,12.03
2024-03-26T17:29:31.982Z,12.03
2024-03-26T17:31:59.355Z,11.97
2024-03-26T17:34:26.795Z,11.96
2024-03-26T17:36:54.366Z,11.91
2024-03-26T17:39:21.933Z,11.88
2024-03-26T17:41:51.794Z,11.84
2024-03-26T17:44:19.305Z,11.81
2024-03-26T17:46:47.657Z,11.76
2024-03-26T17:49:15.248Z,11.70
2024-03-26T17:51:42.620Z,11.63
2024-03-26T17:54:10.000Z,11.60
2024-03-26T17:56:37.387Z,11.54
2024-03-26T17:59:07.789Z,11.50
2024-03-26T18:01:35.613Z,11.44
2024-03-26T18:04:03.020Z,11.40
2024-03-26T18:06:30.357Z,11.38
2024-03-26T18:08:57.763Z,11.35
2024-03-26T18:11:25.089Z,11.34
2024-03-26T18:13:52.446Z,11.32
2024-03-26T18:16:23.006Z,11.28
2024-03-26T18:18:50.689Z,11.26
2024-03-26T18:21:18.052Z,11.25
2024-03-26T18:23:45.396Z,11.22
2024-03-26T18:26:12.806Z,11.22
2024-03-26T18:28:40.199Z,11.22
2024-03-26T18:31:07.602Z,11.20
2024-03-26T18:33:38.397Z,11.18
2024-03-26T18:36:06.343Z,11.15
2024-03-26T18:38:35.766Z,11.17
2024-03-26T18:41:06.617Z,11.16
2024-03-26T18:43:35.274Z,11.16
2024-03-26T18:46:09.566Z,11.13
2024-03-26T18:48:39.954Z,11.15
2024-03-26T18:51:07.666Z,11.15
2024-03-26T18:53:39.489Z,11.14
2024-03-26T18:56:09.813Z,11.13
2024-03-26T18:58:39.051Z,11.10
2024-03-26T19:01:13.290Z,11.08
2024-03-26T19:03:43.900Z,11.07
2024-03-26T19:06:11.307Z,11.08
2024-03-26T19:08:39.019Z,11.09
2024-03-26T19:11:06.737Z,11.07
2024-03-26T19:13:34.463Z,11.10
2024-03-26T19:16:02.345Z,11.12
2024-03-26T19:18:32.726Z,11.13
2024-03-26T19:21:04.806Z,11.14
2024-03-26T19:23:32.496Z,11.15
2024-03-26T19:26:01.114Z,11.15
2024-03-26T19:28:28.741Z,11.09
2024-03-26T19:30:56.952Z,11.11
2024-03-26T19:33:24.502Z,11.13
2024-03-26T19:35:58.950Z,11.15
2024-03-26T19:38:29.119Z,11.07
2024-03-26T19:40:58.318Z,11.02
2024-03-26T19:43:26.108Z,11.07
2024-03-26T19:46:00.890Z,11.06
2024-03-26T19:48:28.246Z,11.06
2024-03-26T19:50:56.347Z,11.00
2024-03-26T19:53:24.626Z,11.00
2024-03-26T19:56:00.149Z,11.02
2024-03-26T19:58:29.259Z,10.99
2024-03-26T20:01:01.985Z,10.97
2024-03-26T20:03:29.842Z,10.95
2024-03-26T20:06:00.604Z,10.95
2024-03-26T20:08:28.176Z,10.93
2024-03-26T20:10:58.331Z,10.93
2024-03-26T20:13:25.735Z,10.94
2024-03-26T20:15:53.636Z,10.97
2024-03-26T20:18:21.249Z,10.99
2024-03-26T20:20:53.649Z,11.03
2024-03-26T20:23:21.104Z,11.01
2024-03-26T20:25:48.829Z,11.00
2024-03-26T20:28:18.691Z,11.02
2024-03-26T20:30:46.079Z,11.04
2024-03-26T20:33:14.904Z,11.05
2024-03-26T20:35:42.366Z,11.05
2024-03-26T20:38:09.900Z,11.05
2024-03-26T20:40:44.472Z,11.06
2024-03-26T20:43:13.521Z,11.07
2024-03-26T20:45:43.537Z,11.09
2024-03-26T20:48:11.123Z,11.07
2024-03-26T20:50:38.492Z,11.08
2024-03-26T20:53:06.396Z,11.09
2024-03-26T20:55:36.299Z,11.07
2024-03-26T20:58:05.475Z,11.09
2024-03-26T21:00:35.164Z,11.08
2024-03-26T21:03:05.967Z,11.08
2024-03-26T21:05:33.505Z,11.02
2024-03-26T21:08:01.679Z,11.02
2024-03-26T21:10:31.447Z,11.04
2024-03-26T21:12:59.711Z,11.02
2024-03-26T21:15:29.354Z,11.03
2024-03-26T21:18:00.040Z,11.02
2024-03-26T21:20:32.936Z,11.02
2024-03-26T21:23:00.408Z,11.01
2024-03-26T21:25:27.880Z,10.95
2024-03-26T21:27:56.223Z,10.98
2024-03-26T21:30:23.681Z,10.97
2024-03-26T21:32:51.130Z,10.97
2024-03-26T21:35:18.786Z,10.97
2024-03-26T21:37:48.794Z,10.95
2024-03-26T21:40:17.067Z,10.95
2024-03-26T21:42:48.845Z,10.95
2024-03-26T21:45:17.736Z,10.95
2024-03-26T21:47:45.661Z,10.94
2024-03-26T21:50:13.950Z,10.93
2024-03-26T21:52:41.429Z,10.93
2024-03-26T21:55:12.984Z,10.85
2024-03-26T21:57:41.350Z,10.88
2024-03-26T22:00:12.686Z,10.89
2024-03-26T22:02:40.978Z,10.92
2024-03-26T22:05:08.864Z,10.98
2024-03-26T22:07:36.339Z,11.00
2024-03-26T22:10:05.894Z,11.11
2024-03-26T22:12:35.909Z,11.16
2024-03-26T22:15:03.810Z,11.15
2024-03-26T22:17:31.343Z,11.17
2024-03-26T22:19:59.237Z,11.13
2024-03-26T22:22:26.878Z,11.15
2024-03-26T22:24:54.391Z,11.07
2024-03-26T22:27:23.133Z,11.12
2024-03-26T22:29:53.355Z,11.15
2024-03-26T22:32:22.144Z,11.10
2024-03-26T22:34:49.777Z,11.12
2024-03-26T22:37:17.321Z,11.10
2024-03-26T22:39:44.952Z,11.16
2024-03-26T22:42:12.495Z,11.18
2024-03-26T22:44:40.005Z,11.21
2024-03-26T22:47:10.017Z,11.25
2024-03-26T22:49:37.521Z,11.29
2024-03-26T22:52:06.376Z,11.31
2024-03-26T22:54:33.985Z,11.33
2024-03-26T22:57:01.520Z,11.36
2024-03-26T22:59:29.070Z,11.41
2024-03-26T23:01:56.572Z,11.41
2024-03-26T23:04:26.566Z,11.47
2024-03-26T23:06:54.420Z,11.53
2024-03-26T23:09:22.611Z,11.54
2024-03-26T23:11:50.109Z,11.55
2024-03-26T23:14:17.675Z,11.56
2024-03-26T23:16:45.326Z,11.58
2024-03-26T23:19:12.898Z,11.57
2024-03-26T23:21:43.520Z,11.56
2024-03-26T23:24:11.037Z,11.53
2024-03-26T23:26:38.558Z,11.50
2024-03-26T23:29:06.035Z,11.48
2024-03-26T23:31:33.599Z,11.50
2024-03-26T23:34:01.111Z,11.45
2024-03-26T23:36:28.611Z,11.45
2024-03-26T23:38:59.177Z,11.50
2024-03-26T23:41:26.670Z,11.51
2024-03-26T23:43:54.185Z,11.53
2024-03-26T23:46:21.943Z,11.55
2024-03-26T23:48:49.660Z,11.54
2024-03-26T23:51:17.254Z,11.54
2024-03-26T23:53:45.749Z,11.56
2024-03-26T23:56:15.743Z,11.48
2024-03-26T23:58:43.809Z,11.52
